Time;durP1;ratioP1;P1;durP2;ratioP2;P2;SDS_P1;SDS_P2;PMS_P1;PMS_P2;Temp;Humidity;BMP_temperature;BMP_pressure;BME280_temperature;BME280_humidity;BME280_pressure;Samples;Min_cycle;Max_cycle;Signal;HPM_P1;HPM_P2
2022/06/17 00:01:56;;;;;;;11.25;4.50;;;20.10;91.20;;;;;;4673203;30;20335;-95
2022/06/17 00:04:21;;;;;;;7.85;3.60;;;20.00;91.50;;;;;;4672789;30;20109;-95
2022/06/17 00:06:58;;;;;;;9.40;4.45;;;20.20;91.50;;;;;;4688112;30;20037;-91
2022/06/17 00:09:27;;;;;;;6.95;3.88;;;20.30;91.30;;;;;;4688213;30;20040;-94
2022/06/17 00:11:53;;;;;;;8.60;3.90;;;20.60;90.90;;;;;;4673099;30;20534;-83
2022/06/17 00:14:23;;;;;;;9.57;3.50;;;20.80;90.30;;;;;;4672322;30;20046;-87
2022/06/17 00:16:49;;;;;;;7.72;4.03;;;20.80;90.30;;;;;;4674810;30;20119;-80
2022/06/17 00:19:18;;;;;;;7.63;4.50;;;20.70;90.40;;;;;;4679163;30;20041;-84
2022/06/17 00:21:48;;;;;;;8.32;4.00;;;20.90;90.00;;;;;;4677620;30;20037;-91
2022/06/17 00:24:25;;;;;;;7.45;4.07;;;21.10;89.50;;;;;;4677905;30;20045;-92
2022/06/17 00:26:53;;;;;;;10.35;3.88;;;20.60;89.00;;;;;;4692375;30;20474;-93
2022/06/17 00:29:21;;;;;;;6.72;3.60;;;21.20;88.40;;;;;;4692835;30;20140;-84
2022/06/17 00:31:47;;;;;;;8.45;3.97;;;21.20;88.80;;;;;;4678020;30;20293;-91
2022/06/17 00:34:13;;;;;;;10.27;3.90;;;21.20;89.10;;;;;;4676426;30;20059;-93
2022/06/17 00:36:41;;;;;;;6.80;3.70;;;21.20;88.60;;;;;;4674147;30;20327;-81
2022/06/17 00:39:18;;;;;;;8.27;4.22;;;21.20;88.50;;;;;;4688766;30;20104;-92
2022/06/17 00:41:50;;;;;;;9.73;4.63;;;21.00;89.30;;;;;;4673887;30;20042;-80
2022/06/17 00:44:55;;;;;;;8.20;4.57;;;21.00;89.00;;;;;;4688053;30;20875;-81
2022/06/17 00:47:45;;;;;;;8.73;4.07;;;20.50;90.50;;;;;;4687569;30;20124;-94
2022/06/17 00:50:41;;;;;;;9.05;4.50;;;19.80;91.50;;;;;;4688035;30;20061;-95
2022/06/17 00:53:25;;;;;;;11.32;4.40;;;19.90;92.40;;;;;;4671900;30;20112;-83
2022/06/17 00:56:16;;;;;;;9.30;4.65;;;20.20;91.70;;;;;;4687721;30;20033;-93
2022/06/17 00:59:10;;;;;;;11.50;4.75;;;20.10;91.80;;;;;;4687510;30;20034;-94
2022/06/17 01:02:01;;;;;;;10.40;5.40;;;20.20;91.80;;;;;;4671776;30;20637;-95
2022/06/17 01:04:32;;;;;;;7.68;3.47;;;20.40;91.20;;;;;;4672054;30;20040;-92
2022/06/17 01:07:18;;;;;;;8.13;3.63;;;20.20;91.70;;;;;;4672231;30;20060;-94
2022/06/17 01:09:57;;;;;;;9.23;4.40;;;20.40;91.40;;;;;;4670929;30;20069;-93
2022/06/17 01:12:35;;;;;;;9.35;4.85;;;20.60;90.90;;;;;;4671895;30;20133;-82
2022/06/17 01:15:03;;;;;;;10.98;4.13;;;20.60;90.60;;;;;;4670797;30;20053;-79
2022/06/17 01:17:29;;;;;;;12.30;6.68;;;19.30;91.20;;;;;;4673793;30;20041;-91
2022/06/17 01:19:57;;;;;;;14.07;5.88;;;20.30;91.00;;;;;;4671347;30;20522;-93
2022/06/17 01:22:26;;;;;;;8.32;4.25;;;20.30;91.20;;;;;;4671110;30;20034;-92
2022/06/17 01:25:03;;;;;;;9.50;4.50;;;20.20;91.80;;;;;;4671226;30;20128;-94
2022/06/17 01:27:34;;;;;;;9.20;4.50;;;19.60;92.70;;;;;;4686758;30;20048;-80
2022/06/17 01:30:00;;;;;;;11.32;4.72;;;19.90;92.40;;;;;;4671106;30;20025;-82
2022/06/17 01:32:31;;;;;;;14.63;5.00;;;20.10;92.10;;;;;;4671010;30;20068;-81
2022/06/17 01:34:57;;;;;;;10.98;4.70;;;20.40;91.70;;;;;;4686766;30;20331;-88
2022/06/17 01:37:23;;;;;;;8.32;3.97;;;20.40;91.50;;;;;;4685957;30;20113;-84
2022/06/17 01:39:57;;;;;;;7.57;3.85;;;20.00;91.60;;;;;;4686679;30;20037;-94
2022/06/17 01:42:27;;;;;;;9.00;4.28;;;20.30;91.60;;;;;;4670136;30;20393;-93
2022/06/17 01:44:59;;;;;;;9.18;4.75;;;20.20;91.80;;;;;;4686247;30;20037;-93
2022/06/17 01:47:28;;;;;;;10.02;4.43;;;20.30;91.10;;;;;;4670708;30;20026;-83
2022/06/17 01:50:26;;;;;;;8.30;4.53;;;20.30;91.30;;;;;;4686622;30;20025;-93
2022/06/17 01:52:55;;;;;;;11.82;4.95;;;21.70;91.70;;;;;;4687662;30;20053;-81
2022/06/17 01:55:30;;;;;;;9.77;5.07;;;20.20;91.90;;;;;;4666585;30;20487;-93
2022/06/17 01:58:09;;;;;;;23.23;9.27;;;20.40;91.20;;;;;;4680074;30;20042;-92
2022/06/17 02:00:35;;;;;;;11.65;6.60;;;20.40;90.70;;;;;;4679909;30;20631;-81
2022/06/17 02:03:13;;;;;;;11.52;5.07;;;19.90;91.80;;;;;;4680863;30;20053;-79
2022/06/17 02:05:43;;;;;;;10.05;4.32;;;19.80;92.00;;;;;;4664846;30;20080;-79
2022/06/17 02:08:10;;;;;;;9.90;4.28;;;19.90;91.80;;;;;;4671669;30;20291;-95
2022/06/17 02:10:39;;;;;;;13.07;5.05;;;19.70;92.60;;;;;;4654889;30;20034;-81
2022/06/17 02:13:09;;;;;;;8.95;5.18;;;19.50;92.90;;;;;;4652990;30;20707;-93
2022/06/17 02:15:35;;;;;;;11.65;5.25;;;18.20;92.90;;;;;;4651957;30;20030;-82
2022/06/17 02:18:06;;;;;;;9.15;5.00;;;19.40;93.50;;;;;;4666496;30;20236;-86
2022/06/17 02:20:32;;;;;;;11.13;4.75;;;19.30;93.30;;;;;;4666515;30;20267;-80
2022/06/17 02:23:09;;;;;;;10.80;4.82;;;19.40;93.60;;;;;;4673175;30;20049;-93
2022/06/17 02:25:42;;;;;;;8.88;4.72;;;19.50;93.10;;;;;;4665814;30;20057;-89
2022/06/17 02:28:16;;;;;;;7.63;4.10;;;19.10;94.00;;;;;;4676460;30;20040;-94
2022/06/17 02:30:51;;;;;;;10.77;4.32;;;18.00;94.80;;;;;;4668552;30;20184;-93
2022/06/17 02:33:18;;;;;;;8.82;4.43;;;18.70;94.70;;;;;;4691916;30;20057;-89
2022/06/17 02:35:59;;;;;;;10.43;4.95;;;18.10;96.00;;;;;;4698244;30;20125;-78
2022/06/17 02:38:36;;;;;;;10.88;4.50;;;18.10;96.10;;;;;;4675753;30;20095;-95
2022/06/17 02:41:23;;;;;;;12.07;4.80;;;18.00;96.40;;;;;;4692216;30;20231;-85
2022/06/17 02:44:32;;;;;;;9.60;4.80;;;19.10;94.40;;;;;;4675842;30;20042;-94
2022/06/17 02:47:16;;;;;;;8.25;4.30;;;19.70;93.50;;;;;;4690241;30;20493;-85
2022/06/17 02:49:53;;;;;;;11.98;4.40;;;19.80;93.80;;;;;;4692760;30;20519;-94
2022/06/17 02:55:42;;;;;;;10.05;4.65;;;20.10;92.80;;;;;;4694956;30;20056;-85
2022/06/17 02:58:29;;;;;;;11.45;4.82;;;20.40;91.90;;;;;;4694181;30;20049;-88
2022/06/17 03:00:58;;;;;;;8.43;4.32;;;20.20;91.70;;;;;;4676637;30;20394;-94
2022/06/17 03:03:30;;;;;;;8.93;4.18;;;20.00;92.30;;;;;;4684404;25;20374;-92
2022/06/17 03:06:11;;;;;;;7.55;4.00;;;19.90;91.70;;;;;;4676237;25;20054;-93
2022/06/17 03:08:38;;;;;;;7.85;3.83;;;20.10;92.20;;;;;;4673117;30;20503;-81
2022/06/17 03:11:06;;;;;;;9.63;4.68;;;19.80;92.90;;;;;;4672673;30;20113;-82
2022/06/17 03:14:16;;;;;;;10.50;4.78;;;19.00;94.10;;;;;;4675004;30;20073;-82
2022/06/17 03:16:58;;;;;;;10.43;4.25;;;19.00;94.20;;;;;;4652973;30;20569;-95
2022/06/17 03:19:27;;;;;;;9.35;5.15;;;18.90;94.30;;;;;;4672228;30;20180;-81
2022/06/17 03:21:59;;;;;;;10.85;4.57;;;17.10;94.30;;;;;;4680187;30;20128;-94
2022/06/17 03:24:30;;;;;;;7.70;3.92;;;15.60;94.70;;;;;;4683196;30;20052;-85
2022/06/17 03:27:07;;;;;;;10.20;4.70;;;19.10;94.90;;;;;;4683819;30;20034;-84
2022/06/17 03:29:46;;;;;;;8.65;4.63;;;19.40;93.80;;;;;;4676480;30;20026;-94
2022/06/17 03:32:24;;;;;;;9.43;4.20;;;19.30;93.90;;;;;;4675952;30;20060;-94
2022/06/17 03:34:52;;;;;;;8.38;4.22;;;18.90;94.80;;;;;;4675388;30;20034;-95
2022/06/17 03:37:38;;;;;;;12.05;4.13;;;19.20;94.30;;;;;;4673950;30;20330;-93
2022/06/17 03:40:28;;;;;;;10.95;4.40;;;19.30;93.90;;;;;;4682951;25;20071;-81
2022/06/17 03:43:16;;;;;;;8.95;4.20;;;19.00;94.30;;;;;;4686638;30;20179;-81
2022/06/17 03:45:49;;;;;;;9.15;4.05;;;18.80;95.10;;;;;;4673434;30;20078;-89
2022/06/17 03:48:15;;;;;;;10.45;4.88;;;19.20;94.40;;;;;;4689028;30;20034;-79
2022/06/17 03:51:06;;;;;;;8.70;4.10;;;19.40;93.90;;;;;;4688780;30;20045;-85
2022/06/17 03:53:34;;;;;;;7.28;3.72;;;19.50;93.60;;;;;;4688916;30;20580;-80
2022/06/17 03:56:35;;;;;;;8.82;4.50;;;20.00;92.90;;;;;;4672944;30;20402;-83
2022/06/17 03:59:07;;;;;;;9.98;3.65;;;20.20;92.30;;;;;;4673193;30;20411;-95
2022/06/17 04:01:46;;;;;;;7.75;3.60;;;20.20;92.30;;;;;;4688035;30;20108;-95
2022/06/17 04:04:32;;;;;;;7.38;3.88;;;20.30;91.70;;;;;;4689270;30;20116;-83
2022/06/17 04:06:58;;;;;;;7.35;3.88;;;20.40;91.60;;;;;;4673110;30;20584;-94
2022/06/17 04:09:29;;;;;;;7.30;3.95;;;20.50;91.50;;;;;;4688324;30;20105;-87
2022/06/17 04:12:00;;;;;;;6.97;3.58;;;20.70;91.20;;;;;;4672792;30;20119;-83
2022/06/17 04:14:38;;;;;;;7.65;3.97;;;20.80;90.90;;;;;;4672461;30;20111;-92
2022/06/17 04:17:12;;;;;;;10.30;5.25;;;20.70;90.70;;;;;;4673103;30;20299;-94
2022/06/17 04:19:39;;;;;;;9.63;5.60;;;20.90;90.60;;;;;;4672997;30;20041;-91
2022/06/17 04:22:17;;;;;;;13.93;5.28;;;20.90;90.70;;;;;;4673306;30;20057;-93
2022/06/17 04:24:48;;;;;;;8.82;4.68;;;20.90;90.60;;;;;;4673035;30;20120;-80
2022/06/17 04:27:16;;;;;;;7.68;4.25;;;20.80;90.80;;;;;;4688841;30;20503;-90
2022/06/17 04:29:45;;;;;;;7.60;4.03;;;20.60;91.00;;;;;;4673064;30;20381;-88
2022/06/17 04:32:22;;;;;;;10.25;5.38;;;20.70;90.90;;;;;;4672851;30;20087;-92
2022/06/17 04:35:12;;;;;;;12.85;7.15;;;20.80;90.80;;;;;;4672681;30;20447;-94
2022/06/17 04:37:50;;;;;;;11.32;5.90;;;20.50;91.10;;;;;;4688091;30;20037;-94
2022/06/17 04:40:54;;;;;;;8.38;4.68;;;20.20;91.50;;;;;;4672323;30;20514;-83
2022/06/17 04:43:35;;;;;;;8.98;4.53;;;20.30;91.70;;;;;;4634591;30;20061;-85
2022/06/17 04:46:12;;;;;;;9.68;4.95;;;20.40;91.60;;;;;;4620182;30;20337;-94
2022/06/17 04:48:39;;;;;;;9.85;4.63;;;20.60;91.30;;;;;;4633861;30;20053;-82
2022/06/17 04:51:17;;;;;;;9.27;4.88;;;20.60;91.30;;;;;;4619786;30;20733;-92
2022/06/17 04:53:56;;;;;;;9.52;4.90;;;21.50;91.20;;;;;;4619482;30;20538;-94
2022/06/17 04:56:37;;;;;;;11.30;4.43;;;21.00;90.70;;;;;;4635216;30;20039;-94
2022/06/17 04:59:16;;;;;;;8.90;4.60;;;21.10;90.40;;;;;;4636315;30;20027;-93
2022/06/17 05:01:46;;;;;;;9.13;4.55;;;21.20;90.10;;;;;;4638301;30;20047;-93
2022/06/17 05:04:12;;;;;;;8.32;4.88;;;21.20;90.00;;;;;;4631510;30;20038;-91
2022/06/17 05:06:38;;;;;;;9.63;5.40;;;21.20;90.50;;;;;;4632346;30;20049;-82
2022/06/17 05:09:31;;;;;;;10.30;4.97;;;21.10;90.30;;;;;;4650223;30;20502;-88
2022/06/17 05:12:14;;;;;;;10.32;4.90;;;21.00;90.40;;;;;;4639490;30;20043;-93
2022/06/17 05:14:51;;;;;;;9.85;4.43;;;21.20;90.30;;;;;;4622185;30;20066;-91
2022/06/17 05:17:18;;;;;;;10.25;5.50;;;21.20;90.20;;;;;;4636045;30;20396;-81
2022/06/17 05:19:44;;;;;;;10.07;5.28;;;20.80;90.70;;;;;;4653017;30;20251;-92
2022/06/17 05:22:35;;;;;;;9.25;5.28;;;21.00;90.50;;;;;;4689221;30;20260;-84
2022/06/17 05:25:04;;;;;;;10.95;5.20;;;21.00;90.50;;;;;;4672850;30;20059;-94
2022/06/17 05:27:30;;;;;;;9.38;4.90;;;21.00;90.50;;;;;;4672651;30;20045;-86
2022/06/17 05:29:56;;;;;;;9.32;5.10;;;21.10;90.50;;;;;;4672793;30;20340;-93
2022/06/17 05:32:22;;;;;;;7.20;4.47;;;21.20;90.50;;;;;;4688964;30;20083;-83
2022/06/17 05:34:48;;;;;;;9.98;4.43;;;21.40;90.10;;;;;;4688917;30;20057;-88
2022/06/17 05:37:14;;;;;;;8.77;4.55;;;21.60;89.80;;;;;;4674907;30;20037;-81
2022/06/17 05:39:41;;;;;;;11.40;4.88;;;21.80;88.90;;;;;;4688268;30;20308;-94
2022/06/17 05:42:07;;;;;;;9.38;3.97;;;21.90;88.40;;;;;;4688366;30;20307;-87
2022/06/17 05:44:33;;;;;;;10.75;5.10;;;22.00;87.90;;;;;;4672223;30;20033;-93
2022/06/17 05:46:59;;;;;;;8.40;4.53;;;22.10;87.70;;;;;;4687610;30;20045;-79
2022/06/17 05:49:25;;;;;;;8.77;4.47;;;22.00;87.90;;;;;;4671742;30;20029;-82
2022/06/17 05:51:51;;;;;;;10.38;4.72;;;22.10;87.70;;;;;;4671739;30;20049;-93
2022/06/17 05:54:30;;;;;;;10.90;5.22;;;22.30;86.60;;;;;;4673191;30;20045;-92
2022/06/17 05:56:55;;;;;;;7.95;5.10;;;22.30;86.50;;;;;;4689417;30;20041;-92
2022/06/17 05:59:22;;;;;;;13.15;5.20;;;22.30;86.60;;;;;;4688754;30;20041;-94
2022/06/17 06:01:47;;;;;;;9.90;4.97;;;22.20;86.50;;;;;;4688172;30;20026;-90
2022/06/17 06:04:13;;;;;;;8.77;4.88;;;22.40;86.30;;;;;;4690731;30;20038;-81
2022/06/17 06:06:39;;;;;;;9.38;4.47;;;22.30;86.20;;;;;;4692109;30;20112;-83
2022/06/17 06:09:23;;;;;;;10.05;4.57;;;22.20;86.20;;;;;;4698027;30;20092;-88
2022/06/17 06:12:09;;;;;;;9.10;5.05;;;22.60;87.00;;;;;;4694833;30;20048;-83
2022/06/17 06:25:25;;;;;;;;;;;22.50;85.20;;;;;;4665292;30;20313;-95
2022/06/17 06:28:56;;;;;;;11.13;4.57;;;22.80;84.90;;;;;;4639420;30;19920;-89
2022/06/17 06:32:11;;;;;;;9.40;4.95;;;23.80;84.90;;;;;;4652878;30;20063;-87
2022/06/17 06:34:43;;;;;;;10.55;5.60;;;22.50;83.40;;;;;;4652182;30;20050;-96
2022/06/17 06:41:17;;;;;;;10.63;5.07;;;24.50;84.50;;;;;;4714820;25;19938;-87
2022/06/17 06:44:12;;;;;;;11.43;5.97;;;24.00;84.50;;;;;;4687687;30;20064;-88
2022/06/17 06:46:47;;;;;;;10.57;5.72;;;23.00;84.10;;;;;;4605815;31;20056;-95
2022/06/17 06:49:15;;;;;;;12.65;6.05;;;22.90;86.30;;;;;;4663610;25;20542;-83
2022/06/17 06:54:25;;;;;;;9.85;5.10;;;23.00;83.60;;;;;;4780264;25;20066;-90
2022/06/17 06:56:59;;;;;;;10.60;5.20;;;23.40;83.80;;;;;;4686913;30;20027;-96
2022/06/17 07:02:13;;;;;;;10.20;5.50;;;23.20;83.00;;;;;;4808616;25;20050;-94
2022/06/17 07:04:49;;;;;;;;;;;;;;;;;;;;;
2022/06/17 07:07:31;;;;;;;9.57;5.65;;;23.30;82.40;;;;;;5113747;25;20033;-91
2022/06/17 07:10:25;;;;;;;11.00;5.20;;;23.30;83.40;;;;;;4690488;30;20038;-83
2022/06/17 07:13:10;;;;;;;12.65;6.50;;;23.60;83.70;;;;;;4694796;30;20059;-96
2022/06/17 07:18:21;;;;;;;13.95;6.88;;;22.90;84.00;;;;;;4943681;25;20050;-90
2022/06/17 07:26:13;;;;;;;8.75;5.32;;;23.30;82.90;;;;;;4728425;25;20176;-88
2022/06/17 07:29:04;;;;;;;12.05;5.78;;;23.50;83.70;;;;;;4708758;30;20615;-84
2022/06/17 07:31:32;;;;;;;10.18;5.32;;;24.40;84.80;;;;;;4707308;30;20068;-83
2022/06/17 07:39:56;;;;;;;11.13;5.20;;;23.80;83.80;;;;;;4696786;30;20043;-88
2022/06/17 07:42:53;;;;;;;8.52;5.35;;;24.00;83.30;;;;;;4866620;25;20157;-84
2022/06/17 07:45:26;;;;;;;9.40;5.05;;;24.60;82.80;;;;;;4691497;30;20054;-93
2022/06/17 07:50:49;;;;;;;7.38;4.38;;;24.10;81.60;;;;;;4709044;25;20066;-83
2022/06/17 07:53:55;;;;;;;8.57;4.78;;;27.10;84.00;;;;;;4673261;30;20038;-84
2022/06/17 07:57:02;;;;;;;8.18;4.00;;;24.90;81.30;;;;;;4672164;30;20249;-81
2022/06/17 07:59:35;;;;;;;9.25;4.53;;;24.30;80.00;;;;;;4681143;30;20039;-95
2022/06/17 08:02:04;;;;;;;14.18;5.20;;;24.60;80.30;;;;;;4679530;30;20269;-82
2022/06/17 08:04:51;;;;;;;10.95;4.90;;;24.60;79.90;;;;;;4796286;25;20054;-82
2022/06/17 08:08:03;;;;;;;7.32;3.78;;;24.50;79.70;;;;;;4662059;30;20023;-83
2022/06/17 08:13:04;;;;;;;9.75;3.20;;;24.50;77.80;;;;;;4709798;25;20062;-88
2022/06/17 08:37:17;;;;;;;6.10;2.97;;;25.20;75.10;;;;;;3818379;25;20057;-84
2022/06/17 08:51:15;;;;;;;6.95;2.95;;;26.10;69.80;;;;;;5289448;25;20058;-82
2022/06/17 09:05:21;;;;;;;8.77;3.22;;;26.00;69.70;;;;;;5117616;25;19931;-81
2022/06/17 09:11:21;;;;;;;8.85;3.67;;;27.40;71.10;;;;;;4694932;30;20041;-95
2022/06/17 09:23:12;;;;;;;7.00;3.60;;;23.70;69.90;;;;;;4672830;30;20049;-94
2022/06/17 09:25:46;;;;;;;6.13;3.30;;;25.50;72.20;;;;;;4671020;30;20049;-93
2022/06/17 09:28:40;;;;;;;7.22;3.80;;;25.50;72.90;;;;;;4641337;30;20759;-95
2022/06/17 09:31:46;;;;;;;7.03;3.47;;;25.60;72.70;;;;;;4602894;31;20043;-94
2022/06/17 09:34:37;;;;;;;6.85;3.30;;;25.40;73.40;;;;;;4601580;31;20052;-84
2022/06/17 09:37:46;;;;;;;8.25;4.22;;;24.80;73.10;;;;;;4609232;31;20035;-80
2022/06/17 09:41:04;;;;;;;8.23;3.90;;;26.70;75.80;;;;;;4628150;31;20558;-95
2022/06/17 10:21:43;;;;;;;7.53;4.22;;;27.00;72.80;;;;;;4680215;25;20065;-95
2022/06/17 10:38:43;;;;;;;9.75;4.43;;;27.20;71.10;;;;;;4691536;30;20053;-95
2022/06/17 10:41:10;;;;;;;9.32;4.13;;;27.90;71.10;;;;;;4717541;25;20100;-83
2022/06/17 10:46:44;;;;;;;6.70;3.30;;;27.40;68.80;;;;;;4761706;25;20062;-95
2022/06/17 10:49:42;;;;;;;7.35;3.53;;;28.50;70.50;;;;;;4660143;30;20030;-85
2022/06/17 10:55:56;;;;;;;8.23;3.70;;;28.90;69.70;;;;;;4675240;30;20042;-84
2022/06/17 10:59:08;;;;;;;7.07;3.40;;;24.20;66.20;;;;;;4658444;30;20156;-94
2022/06/17 11:01:58;;;;;;;8.85;3.38;;;27.20;68.30;;;;;;4658097;30;20042;-86
2022/06/17 11:04:44;;;;;;;6.95;3.05;;;27.50;67.20;;;;;;4672552;30;20109;-84
2022/06/17 11:07:27;;;;;;;6.50;2.88;;;27.60;66.30;;;;;;4655775;30;20030;-83
2022/06/17 11:10:30;;;;;;;6.45;2.55;;;28.10;65.40;;;;;;4667903;30;20042;-87
2022/06/17 11:12:56;;;;;;;5.78;2.10;;;27.30;65.10;;;;;;4682480;30;20045;-88
2022/06/17 11:15:44;;;;;;;8.70;2.45;;;27.60;63.90;;;;;;4681242;30;20097;-78
2022/06/17 11:21:20;;;;;;;4.55;2.10;;;27.70;64.00;;;;;;4660004;30;20046;-89
2022/06/17 11:23:51;;;;;;;6.70;2.17;;;27.60;64.00;;;;;;4658731;30;20073;-89
2022/06/17 11:26:26;;;;;;;4.50;2.40;;;27.60;63.70;;;;;;4656767;30;20046;-82
2022/06/17 11:28:56;;;;;;;5.80;2.85;;;27.60;63.60;;;;;;4637369;30;20057;-87
2022/06/17 11:31:21;;;;;;;5.45;2.38;;;27.80;63.40;;;;;;4653494;30;20051;-84
2022/06/17 11:33:53;;;;;;;5.30;2.50;;;27.70;63.40;;;;;;4653029;30;20194;-90
2022/06/17 11:40:16;;;;;;;6.03;2.45;;;26.30;62.80;;;;;;4653313;30;20199;-84
2022/06/17 11:43:14;;;;;;;5.88;2.13;;;28.70;65.10;;;;;;4619143;31;20035;-85
2022/06/17 11:45:44;;;;;;;6.53;2.60;;;27.60;64.30;;;;;;4619420;31;20792;-87
2022/06/17 11:48:15;;;;;;;6.40;2.58;;;27.70;64.40;;;;;;4606373;31;20047;-80
2022/06/17 11:50:59;;;;;;;6.80;2.50;;;27.70;63.60;;;;;;4619611;31;20122;-83
2022/06/17 11:53:26;;;;;;;4.95;2.33;;;27.70;63.70;;;;;;4620835;31;20062;-91
2022/06/17 11:55:52;;;;;;;7.15;2.53;;;28.10;63.30;;;;;;4605626;30;20631;-92
2022/06/17 11:58:19;;;;;;;5.57;2.42;;;28.10;62.40;;;;;;4619294;31;20051;-89
2022/06/17 12:00:49;;;;;;;5.53;2.38;;;28.20;62.70;;;;;;4604297;31;20028;-87
2022/06/17 12:03:37;;;;;;;5.20;2.50;;;28.30;62.70;;;;;;4616620;31;20067;-82
2022/06/17 12:06:05;;;;;;;5.95;2.85;;;28.30;62.50;;;;;;4602749;31;20043;-93
2022/06/17 12:08:43;;;;;;;3.88;2.45;;;28.00;62.60;;;;;;4620906;31;20055;-85
2022/06/17 12:11:16;;;;;;;6.88;2.53;;;27.60;60.00;;;;;;4604238;31;20698;-91
2022/06/17 12:14:11;;;;;;;7.40;3.30;;;27.50;59.10;;;;;;4618071;30;20122;-80
2022/06/17 12:17:09;;;;;;;4.72;2.80;;;28.00;59.00;;;;;;4627486;30;20066;-90
2022/06/17 12:23:46;;;;;;;5.55;2.33;;;27.50;56.50;;;;;;4655803;30;20081;-82
2022/06/17 12:26:57;;;;;;;6.18;2.63;;;28.40;56.60;;;;;;4656691;30;20106;-82
2022/06/17 12:33:38;;;;;;;6.93;2.50;;;30.60;53.70;;;;;;4647004;30;20065;-83
2022/06/17 12:36:58;;;;;;;5.13;2.40;;;30.10;51.30;;;;;;5080684;25;20085;-94
2022/06/17 12:40:06;;;;;;;7.90;2.70;;;30.90;51.30;;;;;;4704573;30;20060;-83
2022/06/17 12:43:17;;;;;;;7.70;2.88;;;30.70;48.40;;;;;;4703925;25;20039;-86
2022/06/17 12:46:21;;;;;;;5.00;2.33;;;32.00;50.20;;;;;;4806949;25;20066;-81
2022/06/17 12:53:21;;;;;;;5.30;2.42;;;31.50;48.00;;;;;;4688804;30;20085;-82
2022/06/17 12:59:10;;;;;;;5.93;2.50;;;32.60;47.80;;;;;;4673303;30;20074;-81
2022/06/17 13:02:12;;;;;;;4.55;2.50;;;34.00;47.50;;;;;;4670166;30;20128;-82
2022/06/17 13:05:15;;;;;;;;;;;34.90;47.40;;;;;;4676561;30;20041;-80
2022/06/17 17:17:17;;;;;;;5.53;2.20;;;26.20;56.80;;;;;;5562821;25;20034;-95
2022/06/17 17:19:57;;;;;;;4.38;2.20;;;25.80;56.90;;;;;;4710865;25;20385;31
2022/06/17 19:27:09;;;;;;;5.32;2.58;;;21.80;74.00;;;;;;5470442;25;21133;-86
2022/06/17 19:29:39;;;;;;;5.35;2.80;;;21.80;72.50;;;;;;4664201;25;20123;-90
2022/06/17 19:38:48;;;;;;;8.00;3.28;;;21.30;75.60;;;;;;4653945;25;20151;-90
2022/06/17 20:02:08;;;;;;;7.22;2.83;;;21.10;73.80;;;;;;5473838;25;20046;-90
2022/06/17 20:25:33;;;;;;;7.00;2.75;;;21.30;76.20;;;;;;5186608;25;20057;-90
2022/06/17 21:05:43;;;;;;;6.88;2.38;;;20.80;76.20;;;;;;4640286;30;20184;-90
2022/06/17 21:08:33;;;;;;;6.95;2.50;;;20.30;75.80;;;;;;4586680;31;20040;-92
2022/06/17 22:27:25;;;;;;;8.85;2.88;;;20.20;82.80;;;;;;4632309;31;20057;-93
